createdAt,value
2022-08-02T00:01:22.270Z,68.74
2022-08-02T00:03:49.916Z,68.33
2022-08-02T00:06:17.865Z,68.72
2022-08-02T00:08:45.483Z,68.84
2022-08-02T00:11:13.276Z,69.25
2022-08-02T00:13:40.944Z,69.31
2022-08-02T00:16:10.939Z,68.84
2022-08-02T00:18:45.173Z,69.38
2022-08-02T00:21:12.836Z,69.61
2022-08-02T00:24:27.824Z,69.85
2022-08-02T00:26:29.249Z,69.84
2022-08-02T00:28:56.792Z,70.39
2022-08-02T00:31:25.707Z,70.77
2022-08-02T00:34:29.878Z,71.45
2022-08-02T00:36:40.828Z,71.37
2022-08-02T00:39:08.395Z,71.29
2022-08-02T00:41:55.885Z,70.79
2022-08-02T00:44:23.667Z,70.37
2022-08-02T00:46:52.667Z,69.82
2022-08-02T00:49:21.278Z,70.07
2022-08-02T00:51:49.018Z,70.70
2022-08-02T00:54:16.690Z,70.46
2022-08-02T00:56:49.527Z,70.74
2022-08-02T00:59:17.819Z,70.67
2022-08-02T01:01:56.489Z,71.21
2022-08-02T01:04:31.469Z,71.74
2022-08-02T01:07:00.181Z,71.80
2022-08-02T01:09:27.829Z,71.59
2022-08-02T01:11:55.514Z,71.56
2022-08-02T01:14:25.188Z,71.63
2022-08-02T01:17:00.346Z,72.22
2022-08-02T01:19:39.194Z,71.93
2022-08-02T01:22:21.172Z,71.67
2022-08-02T01:25:07.615Z,71.76
2022-08-02T01:27:50.933Z,71.64
2022-08-02T01:30:20.657Z,71.98
2022-08-02T01:32:54.612Z,72.13
2022-08-02T01:35:28.413Z,72.03
2022-08-02T01:38:02.442Z,71.64
2022-08-02T01:40:32.509Z,71.94
2022-08-02T01:43:01.686Z,72.81
2022-08-02T01:45:34.214Z,72.39
2022-08-02T01:48:04.445Z,73.06
2022-08-02T01:50:34.376Z,73.22
2022-08-02T01:53:07.985Z,73.51
2022-08-02T01:55:57.555Z,73.93
2022-08-02T01:58:30.310Z,74.40
2022-08-02T02:01:01.601Z,74.79
2022-08-02T02:03:32.102Z,75.14
2022-08-02T02:06:04.585Z,75.45
2022-08-02T02:08:36.180Z,74.94
2022-08-02T02:12:09.653Z,75.34
2022-08-02T02:13:53.599Z,75.39
2022-08-02T02:16:24.714Z,75.87
2022-08-02T02:18:53.813Z,75.76
2022-08-02T02:21:22.105Z,75.99
2022-08-02T02:23:50.737Z,76.45
2022-08-02T02:26:29.531Z,76.35
2022-08-02T02:29:02.517Z,76.32
2022-08-02T02:31:35.702Z,76.84
2022-08-02T02:34:05.483Z,76.60
2022-08-02T02:36:35.111Z,77.00
2022-08-02T02:39:11.591Z,76.89
2022-08-02T02:41:43.436Z,76.78
2022-08-02T02:44:14.434Z,77.01
2022-08-02T02:46:44.884Z,76.49
2022-08-02T02:49:14.291Z,75.41
2022-08-02T02:51:43.004Z,75.33
2022-08-02T02:54:30.519Z,75.23
2022-08-02T02:57:01.656Z,74.94
2022-08-02T02:59:29.998Z,74.64
2022-08-02T03:01:59.480Z,75.18
2022-08-02T03:04:55.482Z,75.34
2022-08-02T03:07:17.333Z,75.32
2022-08-02T03:09:45.134Z,74.88
2022-08-02T03:12:20.091Z,75.50
2022-08-02T03:14:49.460Z,75.56
2022-08-02T03:17:18.737Z,75.59
2022-08-02T03:19:46.925Z,75.18
2022-08-02T03:22:14.646Z,75.45
2022-08-02T03:24:42.352Z,75.60
2022-08-02T03:27:09.905Z,76.12
2022-08-02T03:29:37.629Z,77.05
2022-08-02T03:32:06.051Z,76.86
2022-08-02T03:34:35.052Z,76.74
2022-08-02T03:37:03.717Z,77.19
2022-08-02T03:39:33.275Z,77.29
2022-08-02T03:42:01.908Z,77.23
2022-08-02T03:44:29.945Z,76.87
2022-08-02T03:46:58.728Z,77.59
2022-08-02T03:49:26.888Z,77.80
2022-08-02T03:51:56.546Z,78.02
2022-08-02T03:54:34.814Z,77.99
2022-08-02T03:57:12.308Z,78.21
2022-08-02T03:59:44.056Z,78.63
2022-08-02T04:02:12.786Z,78.83
2022-08-02T04:04:40.973Z,78.74
2022-08-02T04:07:09.929Z,78.97
2022-08-02T04:09:37.460Z,78.80
2022-08-02T04:12:05.936Z,78.66
2022-08-02T04:14:36.116Z,78.64
2022-08-02T04:17:08.660Z,78.33
2022-08-02T04:19:41.947Z,78.41
2022-08-02T04:22:17.587Z,77.77
2022-08-02T04:24:50.433Z,77.89
2022-08-02T04:27:50.423Z,77.51
2022-08-02T04:30:10.024Z,77.23
2022-08-02T04:32:39.266Z,76.80
2022-08-02T04:35:23.235Z,76.79
2022-08-02T04:38:08.566Z,76.09
2022-08-02T04:40:38.554Z,75.62
2022-08-02T04:43:06.599Z,74.32
2022-08-02T04:45:34.445Z,72.56
2022-08-02T04:48:06.143Z,72.13
2022-08-02T04:50:34.435Z,71.94
2022-08-02T04:53:03.411Z,72.40
2022-08-02T04:55:31.018Z,71.24
2022-08-02T04:57:59.612Z,67.24
2022-08-02T05:00:28.639Z,60.48
2022-08-02T05:02:57.231Z,56.95
2022-08-02T05:05:25.284Z,54.41
2022-08-02T05:07:53.245Z,54.35
2022-08-02T05:10:22.480Z,61.17
2022-08-02T05:12:50.313Z,60.59
2022-08-02T05:15:18.562Z,61.07
2022-08-02T05:17:47.675Z,60.38
2022-08-02T05:20:17.009Z,61.55
2022-08-02T05:22:44.745Z,62.96
2022-08-02T05:25:12.684Z,65.08
2022-08-02T05:27:41.854Z,63.57
2022-08-02T05:30:10.838Z,62.92
2022-08-02T05:32:44.951Z,61.75
2022-08-02T05:35:12.792Z,57.71
2022-08-02T05:37:42.190Z,56.35
2022-08-02T05:40:12.944Z,54.83
2022-08-02T05:42:42.446Z,51.59
2022-08-02T05:45:11.218Z,49.19
2022-08-02T05:47:39.518Z,48.92
2022-08-02T05:50:08.503Z,51.56
2022-08-02T05:52:45.492Z,49.50
2022-08-02T05:55:18.255Z,46.82
2022-08-02T05:57:54.330Z,44.84
2022-08-02T06:00:23.009Z,42.82
2022-08-02T06:03:05.519Z,41.55
2022-08-02T06:05:41.358Z,39.98
2022-08-02T06:08:10.373Z,42.73
2022-08-02T06:10:39.203Z,39.02
2022-08-02T06:13:14.382Z,38.26
2022-08-02T06:15:53.408Z,39.62
2022-08-02T06:18:28.462Z,40.26
2022-08-02T06:20:58.956Z,38.38
2022-08-02T06:23:56.612Z,41.81
2022-08-02T06:26:27.807Z,40.73
2022-08-02T06:28:58.740Z,39.99
2022-08-02T06:31:26.651Z,40.82
2022-08-02T06:33:54.464Z,40.17
2022-08-02T06:36:31.141Z,41.18
2022-08-02T06:39:05.459Z,39.67
2022-08-02T06:41:40.411Z,39.43
2022-08-02T06:44:45.052Z,41.97
2022-08-02T06:47:11.065Z,42.33
2022-08-02T06:49:52.156Z,42.74
2022-08-02T06:52:28.464Z,41.43
2022-08-02T06:54:58.795Z,40.96
2022-08-02T06:57:26.522Z,38.27
2022-08-02T06:59:55.664Z,36.88
2022-08-02T07:02:23.662Z,41.30
2022-08-02T07:04:51.555Z,41.76
2022-08-02T07:07:19.811Z,39.30
2022-08-02T07:09:57.234Z,36.59
2022-08-02T07:12:30.139Z,38.05
2022-08-02T07:14:59.518Z,35.74
2022-08-02T07:17:27.679Z,40.64
2022-08-02T07:19:55.346Z,39.77
2022-08-02T07:22:24.525Z,36.33
2022-08-02T07:24:52.768Z,35.05
2022-08-02T07:27:21.179Z,35.65
2022-08-02T07:29:48.819Z,38.72
2022-08-02T07:32:19.249Z,39.18
2022-08-02T07:34:50.985Z,43.01
2022-08-02T07:37:35.836Z,45.05
2022-08-02T07:40:13.942Z,45.73
2022-08-02T07:42:43.705Z,44.90
2022-08-02T07:45:12.405Z,43.84
2022-08-02T07:47:42.523Z,41.21
2022-08-02T07:50:12.201Z,41.82
2022-08-02T07:52:40.704Z,41.42
2022-08-02T07:55:09.397Z,40.16
2022-08-02T07:57:38.130Z,38.64
2022-08-02T08:00:09.372Z,38.92
2022-08-02T08:02:37.170Z,37.05
2022-08-02T08:05:07.865Z,36.22
2022-08-02T08:07:35.893Z,34.68
2022-08-02T08:10:04.750Z,34.88
2022-08-02T08:12:32.548Z,38.11
2022-08-02T08:15:00.231Z,38.25
2022-08-02T08:17:27.937Z,40.52
2022-08-02T08:19:55.554Z,36.96
2022-08-02T08:22:24.534Z,35.68
2022-08-02T08:24:52.133Z,35.03
2022-08-02T08:27:22.699Z,34.71
2022-08-02T08:29:50.933Z,36.58
2022-08-02T08:32:19.655Z,36.36
2022-08-02T08:34:48.072Z,37.93
2022-08-02T08:37:17.057Z,38.94
2022-08-02T08:39:53.712Z,38.80
2022-08-02T08:42:27.199Z,35.52
2022-08-02T08:44:56.042Z,35.33
2022-08-02T08:47:25.038Z,34.60
2022-08-02T08:49:56.385Z,33.13
2022-08-02T08:52:26.190Z,35.55
2022-08-02T08:54:57.066Z,35.60
2022-08-02T08:57:31.474Z,34.21
2022-08-02T08:59:59.998Z,35.15
2022-08-02T09:02:28.510Z,34.94
2022-08-02T09:04:56.780Z,34.46
2022-08-02T09:07:24.340Z,35.63
2022-08-02T09:09:51.876Z,36.96
2022-08-02T09:12:24.941Z,37.23
2022-08-02T09:14:52.800Z,38.67
2022-08-02T09:17:21.905Z,39.97
2022-08-02T09:20:07.503Z,41.56
2022-08-02T09:22:35.359Z,40.78
2022-08-02T09:25:02.961Z,39.87
2022-08-02T09:27:37.203Z,39.04
2022-08-02T09:30:13.682Z,40.56
2022-08-02T09:32:46.439Z,39.48
2022-08-02T09:35:15.256Z,39.55
2022-08-02T09:37:48.388Z,39.94
2022-08-02T09:40:16.678Z,39.77
2022-08-02T09:42:59.221Z,41.23
2022-08-02T09:45:31.594Z,40.81
2022-08-02T09:47:59.294Z,40.54
2022-08-02T09:50:27.185Z,39.64
2022-08-02T09:52:56.902Z,37.47
2022-08-02T09:55:25.342Z,38.49
2022-08-02T09:57:54.342Z,37.94
2022-08-02T10:00:36.963Z,37.69
2022-08-02T10:03:08.943Z,38.23
2022-08-02T10:05:55.763Z,38.05
2022-08-02T10:08:25.771Z,37.50
2022-08-02T10:11:00.474Z,37.25
2022-08-02T10:13:31.610Z,36.36
2022-08-02T10:15:59.436Z,36.83
2022-08-02T10:18:42.301Z,36.33
2022-08-02T10:21:15.416Z,36.11
2022-08-02T10:23:46.043Z,37.08
2022-08-02T10:26:19.124Z,36.77
2022-08-02T10:28:50.500Z,37.00
2022-08-02T10:31:21.861Z,35.66
2022-08-02T10:33:52.909Z,35.58
2022-08-02T10:36:23.506Z,35.30
2022-08-02T10:38:51.671Z,34.60
2022-08-02T10:41:48.097Z,34.49
2022-08-02T10:44:25.693Z,35.48
2022-08-02T10:46:54.513Z,34.98
2022-08-02T10:49:39.285Z,34.79
2022-08-02T10:52:11.482Z,34.60
2022-08-02T10:54:40.937Z,33.56
2022-08-02T10:57:21.048Z,33.87
2022-08-02T10:59:51.318Z,33.61
2022-08-02T11:02:37.180Z,34.47
2022-08-02T11:05:08.871Z,33.89
2022-08-02T11:07:39.028Z,34.82
2022-08-02T11:10:29.590Z,34.78
2022-08-02T11:13:03.465Z,33.32
2022-08-02T11:15:49.457Z,33.30
2022-08-02T11:18:17.139Z,32.27
2022-08-02T11:20:45.013Z,33.68
2022-08-02T11:23:44.437Z,33.35
2022-08-02T11:26:46.180Z,32.60
2022-08-02T11:29:15.819Z,32.67
2022-08-02T11:31:46.382Z,32.90
2022-08-02T11:34:36.422Z,33.04
2022-08-02T11:37:02.402Z,33.33
2022-08-02T11:39:30.216Z,32.50
2022-08-02T11:42:00.325Z,32.49
2022-08-02T11:44:29.573Z,33.54
2022-08-02T11:47:00.321Z,32.71
2022-08-02T11:49:29.135Z,32.49
2022-08-02T11:52:01.708Z,33.31
2022-08-02T11:54:31.727Z,33.33
2022-08-02T11:57:14.445Z,32.92
2022-08-02T11:59:48.014Z,32.81
2022-08-02T12:02:18.764Z,32.71
2022-08-02T12:04:54.690Z,32.91
2022-08-02T12:07:34.566Z,33.29
2022-08-02T12:10:06.003Z,33.21
2022-08-02T12:12:34.004Z,33.00
2022-08-02T12:15:01.625Z,33.29
2022-08-02T12:17:48.364Z,33.02
2022-08-02T12:20:17.172Z,31.72
2022-08-02T12:22:45.146Z,32.78
2022-08-02T12:25:33.543Z,32.20
2022-08-02T12:28:18.014Z,32.25
2022-08-02T12:30:54.504Z,31.22
2022-08-02T12:33:24.541Z,31.17
2022-08-02T12:35:52.502Z,31.43
2022-08-02T12:38:20.494Z,30.71
2022-08-02T12:40:49.051Z,31.62
2022-08-02T12:43:23.744Z,31.60
2022-08-02T12:45:53.928Z,31.72
2022-08-02T12:48:37.369Z,31.78
2022-08-02T12:51:20.265Z,32.20
2022-08-02T12:53:48.314Z,31.66
2022-08-02T12:56:28.940Z,31.76
2022-08-02T12:58:56.879Z,32.10
2022-08-02T13:01:26.818Z,31.59
2022-08-02T13:04:11.065Z,30.32
2022-08-02T13:06:43.956Z,31.41
2022-08-02T13:09:14.128Z,31.12
2022-08-02T13:11:42.975Z,30.94
2022-08-02T13:14:11.595Z,31.04
2022-08-02T13:16:39.234Z,30.26
2022-08-02T13:19:08.228Z,30.37
2022-08-02T13:21:40.947Z,30.82
2022-08-02T13:24:39.817Z,29.75
2022-08-02T13:27:09.614Z,29.69
2022-08-02T13:29:37.593Z,30.88
2022-08-02T13:32:05.475Z,29.29
2022-08-02T13:34:34.593Z,30.11
2022-08-02T13:37:02.559Z,29.75
2022-08-02T13:39:30.219Z,30.92
2022-08-02T13:41:57.785Z,30.48
2022-08-02T13:44:25.381Z,31.03
2022-08-02T13:46:53.053Z,31.33
2022-08-02T13:49:20.691Z,31.79
2022-08-02T13:51:51.262Z,30.96
2022-08-02T13:54:19.239Z,30.48
2022-08-02T13:56:46.856Z,30.75
2022-08-02T13:59:53.988Z,30.74
2022-08-02T14:02:02.444Z,31.45
2022-08-02T14:04:31.028Z,30.80
2022-08-02T14:07:00.053Z,29.87
2022-08-02T14:09:28.105Z,30.75
2022-08-02T14:11:55.732Z,31.68
2022-08-02T14:14:23.302Z,29.96
2022-08-02T14:16:51.224Z,30.76
2022-08-02T14:19:21.694Z,29.94
2022-08-02T14:21:49.403Z,29.79
2022-08-02T14:24:19.798Z,30.20
2022-08-02T14:26:48.582Z,29.17
2022-08-02T14:29:17.067Z,30.28
2022-08-02T14:31:45.278Z,29.44
2022-08-02T14:34:13.218Z,29.60
2022-08-02T14:36:42.311Z,28.98
2022-08-02T14:39:10.259Z,29.99
2022-08-02T14:41:59.531Z,29.93
2022-08-02T14:44:27.252Z,30.37
2022-08-02T14:46:54.884Z,30.20
2022-08-02T14:49:24.585Z,30.02
2022-08-02T14:51:54.230Z,30.14
2022-08-02T14:54:27.804Z,29.87
2022-08-02T14:57:00.423Z,30.33
2022-08-02T14:59:28.298Z,29.51
2022-08-02T15:01:56.097Z,29.14
2022-08-02T15:04:23.858Z,29.79
2022-08-02T15:06:51.678Z,30.24
2022-08-02T15:09:20.037Z,30.51
2022-08-02T15:11:49.331Z,30.98
2022-08-02T15:14:21.992Z,30.84
2022-08-02T15:16:58.440Z,31.03
2022-08-02T15:19:40.868Z,30.52
2022-08-02T15:22:16.600Z,31.61
2022-08-02T15:24:46.789Z,31.19
2022-08-02T15:27:15.279Z,31.06
2022-08-02T15:29:46.359Z,31.08
2022-08-02T15:32:15.395Z,32.12
2022-08-02T15:34:43.236Z,31.42
2022-08-02T15:37:11.081Z,31.04
2022-08-02T15:39:39.458Z,30.53
2022-08-02T15:42:07.158Z,30.94
2022-08-02T15:44:34.798Z,30.29
2022-08-02T15:47:07.156Z,30.84
2022-08-02T15:49:39.373Z,30.44
2022-08-02T15:52:08.780Z,30.87
2022-08-02T15:54:36.360Z,31.60
2022-08-02T15:57:03.987Z,32.44
2022-08-02T15:59:31.656Z,32.04
2022-08-02T16:01:59.335Z,31.14
2022-08-02T16:04:28.258Z,32.63
2022-08-02T16:06:55.909Z,31.96
2022-08-02T16:09:23.625Z,31.77
2022-08-02T16:11:51.550Z,31.81
2022-08-02T16:14:19.255Z,31.91
2022-08-02T16:16:46.838Z,31.59
2022-08-02T16:19:46.214Z,31.61
2022-08-02T16:22:03.354Z,30.88
2022-08-02T16:24:31.655Z,30.29
2022-08-02T16:26:59.634Z,31.07
2022-08-02T16:29:27.305Z,32.00
2022-08-02T16:32:01.247Z,31.25
2022-08-02T16:34:40.265Z,32.15
2022-08-02T16:37:17.713Z,32.54
2022-08-02T16:39:45.291Z,32.50
2022-08-02T16:42:12.843Z,33.08
2022-08-02T16:44:53.290Z,33.51
2022-08-02T16:47:21.366Z,33.30
2022-08-02T16:50:10.594Z,34.47
2022-08-02T16:52:40.035Z,34.07
2022-08-02T16:55:10.943Z,34.56
2022-08-02T16:57:42.576Z,33.68
2022-08-02T17:00:13.101Z,33.87
2022-08-02T17:02:43.150Z,33.57
2022-08-02T17:05:14.336Z,33.66
2022-08-02T17:08:15.303Z,33.69
2022-08-02T17:10:33.470Z,33.39
2022-08-02T17:13:11.550Z,33.50
2022-08-02T17:16:01.155Z,33.47
2022-08-02T17:18:28.177Z,33.57
2022-08-02T17:20:56.170Z,33.45
2022-08-02T17:24:05.579Z,34.35
2022-08-02T17:26:13.186Z,33.83
2022-08-02T17:28:56.527Z,34.21
2022-08-02T17:31:29.826Z,34.13
2022-08-02T17:33:58.485Z,33.77
2022-08-02T17:36:26.260Z,34.14
2022-08-02T17:38:55.240Z,34.94
2022-08-02T17:41:37.749Z,34.67
2022-08-02T17:44:08.487Z,34.61
2022-08-02T17:46:37.080Z,34.98
2022-08-02T17:49:17.271Z,34.93
2022-08-02T17:52:49.255Z,34.86
2022-08-02T17:54:34.848Z,34.89
2022-08-02T17:57:02.529Z,34.63
2022-08-02T17:59:42.043Z,34.59
2022-08-02T18:02:11.547Z,34.61
2022-08-02T18:04:39.352Z,35.61
2022-08-02T18:07:09.719Z,35.23
2022-08-02T18:09:43.517Z,35.77
2022-08-02T18:12:14.258Z,35.54
2022-08-02T18:14:48.886Z,35.88
2022-08-02T18:17:17.645Z,35.75
2022-08-02T18:19:57.411Z,36.66
2022-08-02T18:22:27.136Z,36.38
2022-08-02T18:24:56.189Z,36.54
2022-08-02T18:27:23.912Z,36.55
2022-08-02T18:30:00.005Z,36.73
2022-08-02T18:33:55.681Z,36.92
2022-08-02T18:35:20.349Z,36.77
2022-08-02T18:37:57.063Z,37.35
2022-08-02T18:40:29.900Z,36.84
2022-08-02T18:42:57.600Z,37.41
2022-08-02T18:45:43.302Z,37.78
2022-08-02T18:48:17.527Z,37.10
2022-08-02T18:50:46.925Z,37.80
2022-08-02T18:53:16.303Z,37.59
2022-08-02T18:55:59.901Z,37.94
2022-08-02T18:58:32.005Z,38.42
2022-08-02T19:01:00.720Z,37.93
2022-08-02T19:03:49.281Z,38.28
2022-08-02T19:06:19.836Z,38.40
2022-08-02T19:09:05.963Z,39.13
2022-08-02T19:11:37.259Z,38.78
2022-08-02T19:14:05.093Z,38.92
2022-08-02T19:16:36.611Z,39.47
2022-08-02T19:19:05.858Z,39.96
2022-08-02T19:22:17.740Z,40.16
2022-08-02T19:24:21.336Z,40.25
2022-08-02T19:26:51.870Z,40.07
2022-08-02T19:29:42.259Z,40.02
2022-08-02T19:32:40.688Z,40.02
2022-08-02T19:34:58.416Z,40.67
2022-08-02T19:37:26.114Z,40.76
2022-08-02T19:40:05.539Z,40.92
2022-08-02T19:43:00.012Z,40.90
2022-08-02T19:45:45.053Z,41.30
2022-08-02T19:48:14.433Z,40.59
2022-08-02T19:50:44.280Z,40.97
2022-08-02T19:53:17.974Z,41.01
2022-08-02T19:55:58.240Z,41.66
2022-08-02T19:58:32.465Z,41.74
2022-08-02T20:01:00.264Z,41.37
2022-08-02T20:03:50.833Z,41.55
2022-08-02T20:06:17.805Z,41.89
2022-08-02T20:08:53.384Z,41.73
2022-08-02T20:11:25.033Z,42.63
2022-08-02T20:13:54.015Z,42.00
2022-08-02T20:16:27.784Z,42.01
2022-08-02T20:18:56.164Z,41.70
2022-08-02T20:21:36.520Z,42.12
2022-08-02T20:24:07.241Z,42.75
2022-08-02T20:26:35.162Z,42.62
2022-08-02T20:29:04.758Z,42.99
2022-08-02T20:31:32.420Z,43.67
2022-08-02T20:34:00.037Z,44.06
2022-08-02T20:36:28.692Z,44.39
2022-08-02T20:38:56.481Z,44.79
2022-08-02T20:41:37.036Z,45.14
2022-08-02T20:44:15.772Z,45.28
2022-08-02T20:46:59.262Z,45.91
2022-08-02T20:49:41.159Z,45.69
2022-08-02T20:52:23.357Z,45.48
2022-08-02T20:54:52.753Z,45.71
2022-08-02T20:57:36.081Z,45.41
2022-08-02T21:00:11.599Z,45.65
2022-08-02T21:02:39.201Z,45.94
2022-08-02T21:05:17.573Z,46.19
2022-08-02T21:07:47.742Z,46.38
2022-08-02T21:10:15.738Z,45.48
2022-08-02T21:12:45.231Z,45.94
2022-08-02T21:15:14.791Z,45.64
2022-08-02T21:17:46.672Z,46.11
2022-08-02T21:20:27.347Z,46.35
2022-08-02T21:22:57.850Z,46.54
2022-08-02T21:25:50.551Z,46.18
2022-08-02T21:28:17.706Z,46.38
2022-08-02T21:30:46.793Z,45.92
2022-08-02T21:33:18.914Z,46.18
2022-08-02T21:35:52.209Z,45.93
2022-08-02T21:38:35.541Z,46.25
2022-08-02T21:41:06.066Z,46.49
2022-08-02T21:43:40.124Z,46.10
2022-08-02T21:46:09.165Z,46.00
2022-08-02T21:48:42.347Z,45.92
2022-08-02T21:51:10.619Z,45.59
2022-08-02T21:53:43.799Z,45.24
2022-08-02T21:56:31.551Z,45.63
2022-08-02T21:59:00.036Z,45.67
2022-08-02T22:01:31.428Z,45.42
2022-08-02T22:03:59.233Z,45.42
2022-08-02T22:06:26.960Z,46.57
2022-08-02T22:08:55.124Z,46.08
2022-08-02T22:11:22.999Z,46.51
2022-08-02T22:13:51.146Z,46.09
2022-08-02T22:16:19.090Z,45.76
2022-08-02T22:18:51.511Z,46.20
2022-08-02T22:21:20.736Z,46.39
2022-08-02T22:23:51.329Z,46.26
2022-08-02T22:26:19.755Z,46.22
2022-08-02T22:31:40.915Z,46.20
2022-08-02T22:34:26.779Z,46.31
2022-08-02T22:36:58.498Z,46.60
2022-08-02T22:39:26.115Z,47.02
2022-08-02T22:42:06.380Z,47.51
2022-08-02T22:44:35.545Z,47.31
2022-08-02T22:47:13.739Z,47.21
2022-08-02T22:49:51.551Z,47.66
2022-08-02T22:52:22.401Z,47.55
2022-08-02T22:54:50.920Z,47.88
2022-08-02T22:57:30.778Z,48.03
2022-08-02T22:59:04.977Z,46.21
2022-08-02T22:59:59.796Z,47.40
2022-08-02T23:02:27.408Z,48.34
2022-08-02T23:04:56.666Z,49.27
2022-08-02T23:07:24.297Z,48.93
2022-08-02T23:09:51.935Z,49.38
2022-08-02T23:12:20.206Z,49.67
2022-08-02T23:14:48.416Z,50.27
2022-08-02T23:17:33.938Z,50.55
2022-08-02T23:20:03.212Z,50.67
2022-08-02T23:22:32.161Z,50.67
2022-08-02T23:25:01.365Z,51.46
2022-08-02T23:27:29.667Z,51.77
2022-08-02T23:29:57.746Z,51.18
2022-08-02T23:32:26.020Z,51.47
2022-08-02T23:34:54.153Z,51.83
2022-08-02T23:37:23.800Z,51.58
2022-08-02T23:39:51.563Z,52.14
2022-08-02T23:42:19.683Z,52.43
2022-08-02T23:44:47.552Z,53.27
2022-08-02T23:47:16.919Z,53.41
2022-08-02T23:49:44.944Z,53.14
2022-08-02T23:52:13.179Z,53.79
2022-08-02T23:54:42.437Z,53.80
2022-08-02T23:57:20.937Z,53.70
2022-08-02T23:59:51.155Z,54.09
